createdAt,value
2024-03-30T00:01:11.595Z,9.90
2024-03-30T00:03:43.672Z,11.70
2024-03-30T00:06:15.167Z,10.90
2024-03-30T00:08:46.172Z,10.10
2024-03-30T00:11:16.780Z,8.80
2024-03-30T00:13:47.278Z,11.40
2024-03-30T00:16:18.724Z,9.70
2024-03-30T00:21:19.320Z,9.00
2024-03-30T00:23:50.182Z,11.20
2024-03-30T00:26:20.894Z,10.10
2024-03-30T00:28:51.626Z,7.90
2024-03-30T00:31:26.641Z,11.10
2024-03-30T00:33:58.220Z,9.90
2024-03-30T00:38:59.091Z,7.90
2024-03-30T00:41:29.660Z,10.00
2024-03-30T00:44:00.110Z,10.00
2024-03-30T00:46:31.185Z,8.20
2024-03-30T00:49:01.702Z,9.50
2024-03-30T00:51:32.958Z,7.20
2024-03-30T00:54:03.505Z,10.40
2024-03-30T00:56:33.982Z,9.50
2024-03-30T00:59:05.097Z,8.20
2024-03-30T01:01:35.791Z,9.50
2024-03-30T01:04:06.532Z,10.50
2024-03-30T01:06:37.362Z,9.10
2024-03-30T01:09:08.960Z,7.20
2024-03-30T01:11:40.322Z,7.80
2024-03-30T01:19:14.968Z,9.20
2024-03-30T01:21:46.838Z,8.10
2024-03-30T01:24:20.391Z,10.00
2024-03-30T01:26:56.567Z,10.10
2024-03-30T01:29:29.956Z,10.70
2024-03-30T01:32:01.420Z,9.10
2024-03-30T01:34:34.440Z,11.00
2024-03-30T01:37:05.084Z,10.70
2024-03-30T01:39:35.978Z,7.20
2024-03-30T01:42:06.811Z,11.40
2024-03-30T01:44:37.278Z,12.20
2024-03-30T01:47:08.695Z,8.20
2024-03-30T01:49:39.456Z,7.50
2024-03-30T01:52:10.000Z,10.30
2024-03-30T01:54:40.774Z,11.90
2024-03-30T01:57:11.638Z,9.30
2024-03-30T01:59:42.685Z,9.10
2024-03-30T02:02:15.373Z,9.00
2024-03-30T02:04:46.255Z,7.70
2024-03-30T02:07:17.451Z,7.50
2024-03-30T02:09:49.337Z,10.50
2024-03-30T02:12:20.486Z,9.50
2024-03-30T02:14:51.068Z,11.40
2024-03-30T02:17:21.638Z,8.00
2024-03-30T02:19:57.228Z,7.50
2024-03-30T02:22:28.923Z,8.50
2024-03-30T02:24:59.732Z,7.20
2024-03-30T02:27:30.828Z,9.00
2024-03-30T02:30:04.363Z,8.90
2024-03-30T02:32:34.866Z,9.00
2024-03-30T02:35:06.076Z,7.50
2024-03-30T02:37:36.689Z,8.50
2024-03-30T02:40:11.558Z,8.50
2024-03-30T02:42:42.182Z,9.80
2024-03-30T02:45:17.070Z,9.40
2024-03-30T02:47:47.600Z,7.70
2024-03-30T02:50:18.136Z,7.50
2024-03-30T02:52:48.704Z,11.50
2024-03-30T02:55:19.471Z,8.40
2024-03-30T02:57:50.071Z,9.60
2024-03-30T03:00:21.336Z,7.50
2024-03-30T03:02:52.993Z,8.30
2024-03-30T03:05:23.716Z,7.10
2024-03-30T03:07:54.250Z,9.40
2024-03-30T03:10:25.022Z,9.50
2024-03-30T03:12:55.504Z,7.50
2024-03-30T03:15:26.028Z,9.20
2024-03-30T03:17:56.532Z,12.70
2024-03-30T03:20:27.094Z,10.20
2024-03-30T03:22:57.837Z,10.10
2024-03-30T03:25:28.470Z,7.80
2024-03-30T03:27:59.101Z,10.00
2024-03-30T03:30:29.592Z,10.30
2024-03-30T03:33:01.304Z,8.30
2024-03-30T03:35:32.129Z,6.40
2024-03-30T03:38:02.799Z,8.90
2024-03-30T03:40:34.017Z,6.30
2024-03-30T03:43:04.746Z,6.10
2024-03-30T03:45:36.688Z,7.80
2024-03-30T03:48:08.699Z,9.00
2024-03-30T03:50:39.452Z,6.30
2024-03-30T03:53:10.249Z,8.20
2024-03-30T03:55:40.876Z,11.50
2024-03-30T03:58:11.513Z,9.90
2024-03-30T04:00:42.333Z,8.40
2024-03-30T04:03:12.814Z,7.70
2024-03-30T04:05:43.438Z,9.40
2024-03-30T04:08:14.058Z,6.10
2024-03-30T04:10:44.697Z,7.70
2024-03-30T04:13:15.181Z,9.10
2024-03-30T04:15:45.832Z,5.40
2024-03-30T04:18:16.306Z,6.60
2024-03-30T04:20:57.214Z,10.10
2024-03-30T04:23:32.343Z,8.70
2024-03-30T04:26:11.300Z,9.00
2024-03-30T04:28:42.455Z,4.80
2024-03-30T04:31:13.343Z,7.00
2024-03-30T04:33:43.924Z,8.80
2024-03-30T04:36:15.215Z,8.60
2024-03-30T04:38:45.767Z,9.00
2024-03-30T04:41:16.339Z,7.80
2024-03-30T04:43:47.036Z,6.60
2024-03-30T04:46:17.857Z,6.20
2024-03-30T04:48:48.892Z,8.50
2024-03-30T04:51:19.504Z,5.30
2024-03-30T04:53:49.946Z,8.50
2024-03-30T04:56:22.000Z,8.50
2024-03-30T04:58:52.496Z,8.40
2024-03-30T05:01:23.167Z,8.80
2024-03-30T05:03:53.679Z,8.10
2024-03-30T05:06:24.204Z,4.90
2024-03-30T05:08:54.750Z,4.60
2024-03-30T05:11:25.304Z,6.00
2024-03-30T05:13:56.139Z,8.40
2024-03-30T05:16:26.748Z,11.00
2024-03-30T05:18:59.516Z,11.10
2024-03-30T05:21:29.977Z,8.70
2024-03-30T05:24:00.769Z,6.30
2024-03-30T05:26:31.420Z,6.40
2024-03-30T05:29:01.948Z,9.20
2024-03-30T05:31:32.579Z,6.40
2024-03-30T05:34:02.977Z,6.40
2024-03-30T05:36:33.848Z,8.90
2024-03-30T05:39:04.419Z,5.20
2024-03-30T05:41:35.048Z,6.60
2024-03-30T05:44:06.291Z,6.50
2024-03-30T05:46:36.889Z,6.60
2024-03-30T05:49:07.336Z,7.50
2024-03-30T05:51:37.957Z,7.00
2024-03-30T05:54:08.695Z,5.40
2024-03-30T05:56:39.320Z,6.40
2024-03-30T05:59:09.827Z,6.00
2024-03-30T06:01:40.482Z,6.30
2024-03-30T06:04:11.000Z,14.40
2024-03-30T06:06:41.558Z,8.30
2024-03-30T06:09:12.116Z,6.90
2024-03-30T06:11:43.730Z,5.50
2024-03-30T06:14:14.364Z,7.90
2024-03-30T06:16:46.162Z,5.30
2024-03-30T06:19:16.716Z,5.90
2024-03-30T06:21:47.292Z,6.50
2024-03-30T06:24:17.938Z,6.50
2024-03-30T06:26:48.558Z,5.90
2024-03-30T06:29:19.187Z,7.10
2024-03-30T06:31:50.022Z,10.00
2024-03-30T06:34:20.864Z,9.70
2024-03-30T06:39:20.388Z,6.00
2024-03-30T06:42:08.472Z,8.30
2024-03-30T06:44:39.147Z,12.60
2024-03-30T06:47:09.824Z,7.00
2024-03-30T06:52:09.715Z,12.00
2024-03-30T06:54:40.256Z,8.70
2024-03-30T06:57:10.900Z,8.70
2024-03-30T07:02:10.589Z,5.90
2024-03-30T07:04:41.136Z,4.20
2024-03-30T07:07:14.268Z,7.70
2024-03-30T07:09:46.300Z,6.30
2024-03-30T07:12:16.761Z,6.20
2024-03-30T07:14:47.248Z,8.70
2024-03-30T07:17:17.713Z,9.50
2024-03-30T07:19:48.466Z,5.40
2024-03-30T07:22:18.969Z,7.10
2024-03-30T07:27:20.535Z,5.00
2024-03-30T07:29:53.363Z,6.80
2024-03-30T07:32:23.889Z,8.50
2024-03-30T07:34:54.402Z,8.30
2024-03-30T07:39:54.592Z,6.70
2024-03-30T07:42:25.108Z,8.50
2024-03-30T07:47:24.891Z,12.50
2024-03-30T07:49:55.958Z,10.30
2024-03-30T07:52:26.520Z,12.60
2024-03-30T07:54:57.091Z,9.70
2024-03-30T07:57:27.989Z,11.40
2024-03-30T07:59:58.397Z,11.20
2024-03-30T08:04:57.748Z,10.60
2024-03-30T08:09:57.165Z,7.30
2024-03-30T08:14:56.754Z,8.40
2024-03-30T08:17:27.328Z,9.70
2024-03-30T08:19:57.794Z,9.40
2024-03-30T08:22:28.338Z,8.30
2024-03-30T08:24:58.807Z,9.20
2024-03-30T08:29:58.655Z,7.90
2024-03-30T08:32:29.173Z,10.70
2024-03-30T08:37:28.703Z,7.50
2024-03-30T08:42:28.116Z,13.40
2024-03-30T08:44:58.736Z,8.60
2024-03-30T08:47:29.308Z,8.60
2024-03-30T08:52:29.101Z,8.70
2024-03-30T08:54:59.627Z,8.20
2024-03-30T08:57:30.116Z,6.50
2024-03-30T09:00:00.691Z,9.50
2024-03-30T09:05:04.176Z,9.10
2024-03-30T09:07:35.110Z,17.80
2024-03-30T09:10:06.561Z,10.80
2024-03-30T09:12:37.105Z,8.70
2024-03-30T09:15:08.361Z,8.60
2024-03-30T09:17:38.837Z,13.40
2024-03-30T09:20:11.480Z,10.70
2024-03-30T09:22:43.436Z,8.20
2024-03-30T09:25:15.834Z,7.60
2024-03-30T09:27:46.286Z,7.70
2024-03-30T09:30:16.751Z,7.80
2024-03-30T09:32:48.375Z,7.70
2024-03-30T09:35:19.107Z,12.20
2024-03-30T09:40:19.541Z,9.80
2024-03-30T09:42:50.777Z,7.80
2024-03-30T09:45:21.595Z,6.00
2024-03-30T09:50:24.909Z,8.90
2024-03-30T09:52:56.405Z,9.20
2024-03-30T09:55:28.523Z,9.50
2024-03-30T09:57:59.659Z,12.30
2024-03-30T10:00:31.295Z,11.90
2024-03-30T10:03:01.904Z,13.20
2024-03-30T10:05:38.496Z,5.80
2024-03-30T10:08:18.570Z,4.70
2024-03-30T10:10:55.345Z,9.40
2024-03-30T10:13:31.693Z,10.10
2024-03-30T10:16:02.256Z,6.70
2024-03-30T10:18:32.742Z,8.10
2024-03-30T10:21:06.023Z,6.60
2024-03-30T10:23:38.717Z,8.20
2024-03-30T10:26:18.540Z,9.50
2024-03-30T10:28:49.033Z,10.10
2024-03-30T10:31:21.663Z,5.50
2024-03-30T10:33:53.676Z,5.20
2024-03-30T10:36:24.811Z,7.70
2024-03-30T10:38:55.499Z,8.40
2024-03-30T10:41:29.148Z,7.30
2024-03-30T10:43:59.801Z,6.60
2024-03-30T10:46:30.996Z,7.70
2024-03-30T10:49:01.542Z,13.30
2024-03-30T10:51:32.124Z,6.40
2024-03-30T10:54:11.040Z,5.60
2024-03-30T10:56:47.307Z,4.20
2024-03-30T10:59:19.866Z,9.10
2024-03-30T11:01:52.445Z,7.70
2024-03-30T11:04:23.385Z,9.10
2024-03-30T11:06:54.256Z,8.00
2024-03-30T11:09:26.548Z,6.90
2024-03-30T11:11:57.065Z,13.70
2024-03-30T11:14:27.678Z,5.70
2024-03-30T11:17:01.974Z,7.00
2024-03-30T11:19:38.905Z,4.50
2024-03-30T11:22:18.109Z,15.00
2024-03-30T11:24:56.162Z,10.90
2024-03-30T11:27:33.244Z,5.80
2024-03-30T11:30:12.101Z,5.80
2024-03-30T11:32:51.387Z,5.00
2024-03-30T11:35:29.858Z,7.20
2024-03-30T11:38:04.751Z,7.30
2024-03-30T11:40:38.972Z,8.10
2024-03-30T11:43:23.785Z,10.50
2024-03-30T11:45:55.249Z,6.00
2024-03-30T11:48:26.372Z,9.40
2024-03-30T11:50:57.513Z,5.70
2024-03-30T11:53:35.419Z,3.70
2024-03-30T11:56:06.575Z,6.20
2024-03-30T11:58:38.858Z,6.80
2024-03-30T12:01:13.404Z,9.70
2024-03-30T12:03:44.481Z,6.80
2024-03-30T12:06:22.894Z,4.40
2024-03-30T12:08:54.609Z,3.80
2024-03-30T12:11:25.172Z,4.80
2024-03-30T12:13:58.076Z,5.70
2024-03-30T12:16:28.792Z,5.50
2024-03-30T12:18:59.753Z,5.40
2024-03-30T12:21:31.387Z,13.20
2024-03-30T12:24:02.429Z,4.70
2024-03-30T12:26:33.305Z,5.30
2024-03-30T12:31:35.148Z,3.30
2024-03-30T12:34:05.687Z,6.90
2024-03-30T12:36:36.407Z,9.50
2024-03-30T12:39:08.764Z,5.50
2024-03-30T12:41:39.997Z,9.40
2024-03-30T12:44:10.530Z,7.00
2024-03-30T12:46:41.213Z,6.00
2024-03-30T12:49:12.226Z,5.10
2024-03-30T12:51:43.841Z,5.00
2024-03-30T12:54:14.405Z,5.80
2024-03-30T12:56:45.687Z,4.80
2024-03-30T12:59:17.307Z,3.70
2024-03-30T13:01:48.132Z,6.10
2024-03-30T13:04:19.527Z,6.80
2024-03-30T13:06:56.469Z,8.50
2024-03-30T13:09:29.651Z,5.30
2024-03-30T13:12:02.751Z,6.90
2024-03-30T13:14:37.092Z,7.30
2024-03-30T13:17:09.344Z,13.70
2024-03-30T13:19:40.532Z,9.80
2024-03-30T13:22:13.724Z,5.20
2024-03-30T13:24:44.419Z,7.40
2024-03-30T13:27:15.021Z,8.60
2024-03-30T13:29:45.657Z,8.60
2024-03-30T13:32:16.146Z,6.40
2024-03-30T13:34:46.614Z,8.20
2024-03-30T13:37:17.532Z,8.30
2024-03-30T13:42:17.041Z,8.90
2024-03-30T13:44:47.464Z,11.30
2024-03-30T13:47:19.841Z,6.90
2024-03-30T13:49:52.553Z,5.70
2024-03-30T13:52:24.595Z,8.50
2024-03-30T13:54:55.057Z,4.60
2024-03-30T13:57:25.711Z,8.80
2024-03-30T13:59:56.504Z,4.00
2024-03-30T14:02:29.267Z,10.10
2024-03-30T14:04:59.786Z,6.20
2024-03-30T14:07:30.242Z,8.60
2024-03-30T14:10:00.782Z,4.10
2024-03-30T14:12:31.206Z,10.30
2024-03-30T14:15:04.065Z,7.10
2024-03-30T14:17:39.833Z,8.20
2024-03-30T14:20:12.442Z,6.20
2024-03-30T14:22:43.468Z,8.00
2024-03-30T14:25:14.008Z,7.60
2024-03-30T14:27:44.481Z,8.80
2024-03-30T14:30:15.145Z,5.40
2024-03-30T14:32:45.752Z,8.50
2024-03-30T14:35:19.673Z,8.80
2024-03-30T14:37:50.285Z,5.90
2024-03-30T14:40:20.927Z,8.10
2024-03-30T14:42:52.274Z,12.80
2024-03-30T14:45:22.745Z,8.50
2024-03-30T14:47:53.203Z,9.10
2024-03-30T14:50:23.613Z,7.20
2024-03-30T14:52:55.520Z,5.40
2024-03-30T14:55:25.964Z,8.30
2024-03-30T14:57:56.455Z,8.40
2024-03-30T15:00:26.989Z,8.30
2024-03-30T15:02:57.495Z,6.70
2024-03-30T15:05:28.010Z,6.70
2024-03-30T15:07:58.446Z,7.10
2024-03-30T15:10:29.843Z,7.80
2024-03-30T15:13:02.233Z,7.50
2024-03-30T15:15:33.018Z,5.10
2024-03-30T15:18:05.518Z,4.30
2024-03-30T15:20:37.401Z,7.60
2024-03-30T15:23:09.235Z,10.00
2024-03-30T15:25:39.710Z,5.70
2024-03-30T15:28:10.302Z,5.90
2024-03-30T15:30:58.459Z,8.10
2024-03-30T15:33:29.655Z,8.60
2024-03-30T15:36:03.316Z,9.20
2024-03-30T15:38:33.847Z,6.40
2024-03-30T15:41:04.742Z,10.20
2024-03-30T15:43:35.353Z,11.10
2024-03-30T15:46:06.136Z,7.10
2024-03-30T15:48:36.752Z,11.00
2024-03-30T15:51:09.253Z,7.80
2024-03-30T15:53:39.649Z,4.90
2024-03-30T15:56:11.345Z,8.00
2024-03-30T15:58:42.080Z,11.10
2024-03-30T16:01:12.686Z,9.90
2024-03-30T16:03:44.194Z,11.10
2024-03-30T16:06:14.759Z,8.70
2024-03-30T16:08:45.230Z,11.80
2024-03-30T16:11:15.754Z,10.30
2024-03-30T16:13:46.461Z,9.00
2024-03-30T16:16:18.058Z,18.00
2024-03-30T16:18:48.523Z,12.50
2024-03-30T16:21:19.160Z,9.00
2024-03-30T16:23:49.705Z,13.60
2024-03-30T16:26:20.827Z,17.00
2024-03-30T16:28:51.450Z,12.80
2024-03-30T16:31:27.761Z,14.10
2024-03-30T16:34:05.925Z,11.80
2024-03-30T16:36:36.391Z,10.60
2024-03-30T16:39:17.787Z,15.20
2024-03-30T16:41:52.069Z,14.40
2024-03-30T16:44:30.004Z,15.10
2024-03-30T16:47:02.996Z,21.90
2024-03-30T16:49:33.495Z,17.50
2024-03-30T16:52:04.125Z,14.00
2024-03-30T16:54:35.671Z,16.10
2024-03-30T16:57:07.967Z,12.60
2024-03-30T16:59:38.456Z,9.20
2024-03-30T17:02:10.999Z,17.30
2024-03-30T17:04:41.474Z,9.60
2024-03-30T17:07:11.915Z,12.80
2024-03-30T17:09:42.356Z,17.60
2024-03-30T17:12:12.862Z,20.10
2024-03-30T17:14:45.260Z,9.00
2024-03-30T17:17:17.189Z,19.40
2024-03-30T17:19:51.684Z,23.60
2024-03-30T17:22:23.339Z,15.50
2024-03-30T17:24:54.081Z,24.40
2024-03-30T17:27:24.580Z,14.80
2024-03-30T17:29:55.392Z,18.60
2024-03-30T17:32:25.869Z,21.00
2024-03-30T17:35:03.800Z,18.70
2024-03-30T17:37:34.310Z,23.10
2024-03-30T17:40:05.001Z,17.60
2024-03-30T17:42:35.540Z,17.30
2024-03-30T17:45:07.020Z,19.00
2024-03-30T17:47:37.453Z,14.50
2024-03-30T17:50:09.404Z,19.10
2024-03-30T17:52:39.887Z,23.60
2024-03-30T17:55:10.682Z,28.10
2024-03-30T17:57:41.086Z,17.80
2024-03-30T18:00:13.129Z,27.00
2024-03-30T18:02:49.682Z,28.10
2024-03-30T18:05:20.202Z,19.90
2024-03-30T18:07:50.814Z,30.00
2024-03-30T18:10:21.382Z,18.20
2024-03-30T18:12:51.832Z,25.50
2024-03-30T18:15:25.584Z,29.10
2024-03-30T18:17:55.996Z,26.90
2024-03-30T18:20:26.473Z,24.70
2024-03-30T18:22:57.110Z,23.40
2024-03-30T18:25:35.452Z,32.60
2024-03-30T18:28:07.916Z,30.80
2024-03-30T18:30:38.861Z,24.10
2024-03-30T18:33:13.136Z,32.00
2024-03-30T18:35:44.784Z,28.80
2024-03-30T18:38:15.289Z,24.00
2024-03-30T18:40:46.066Z,31.60
2024-03-30T18:43:16.532Z,26.30
2024-03-30T18:45:47.651Z,23.00
2024-03-30T18:50:50.542Z,19.60
2024-03-30T18:53:21.119Z,33.70
2024-03-30T18:55:51.586Z,30.50
2024-03-30T18:58:22.084Z,23.40
2024-03-30T19:00:52.529Z,23.50
2024-03-30T19:03:23.038Z,28.80
2024-03-30T19:05:54.012Z,26.80
2024-03-30T19:08:24.496Z,28.10
2024-03-30T19:10:54.916Z,25.30
2024-03-30T19:13:25.495Z,24.50
2024-03-30T19:15:59.521Z,31.40
2024-03-30T19:18:29.983Z,30.10
2024-03-30T19:21:04.074Z,22.20
2024-03-30T19:23:35.499Z,31.80
2024-03-30T19:26:06.327Z,32.10
2024-03-30T19:28:36.756Z,31.20
2024-03-30T19:31:08.501Z,23.70
2024-03-30T19:33:39.817Z,30.50
2024-03-30T19:36:10.608Z,25.40
2024-03-30T19:38:41.192Z,31.40
2024-03-30T19:41:12.809Z,26.40
2024-03-30T19:43:45.023Z,20.50
2024-03-30T19:46:18.077Z,29.00
2024-03-30T19:48:48.498Z,30.50
2024-03-30T19:51:18.939Z,29.70
2024-03-30T19:53:49.376Z,31.90
2024-03-30T19:56:20.077Z,27.90
2024-03-30T19:58:50.595Z,28.50
2024-03-30T20:01:22.918Z,31.50
2024-03-30T20:03:53.582Z,36.60
2024-03-30T20:06:24.462Z,29.90
2024-03-30T20:08:54.936Z,22.50
2024-03-30T20:11:25.531Z,24.70
2024-03-30T20:13:56.014Z,27.40
2024-03-30T20:16:27.223Z,28.50
2024-03-30T20:19:00.646Z,33.70
2024-03-30T20:21:31.379Z,36.50
2024-03-30T20:24:01.860Z,33.20
2024-03-30T20:26:32.387Z,30.90
2024-03-30T20:29:03.371Z,31.10
2024-03-30T20:31:33.864Z,25.50
2024-03-30T20:34:04.286Z,31.10
2024-03-30T20:36:35.735Z,38.60
2024-03-30T20:39:07.943Z,40.30
2024-03-30T20:41:38.785Z,35.20
2024-03-30T20:44:09.666Z,33.50
2024-03-30T20:46:40.124Z,38.00
2024-03-30T20:49:11.523Z,32.70
2024-03-30T20:51:42.003Z,26.20
2024-03-30T20:54:12.465Z,38.00
2024-03-30T20:56:43.772Z,37.50
2024-03-30T20:59:14.833Z,36.30
2024-03-30T21:01:46.147Z,39.80
2024-03-30T21:04:17.795Z,38.80
2024-03-30T21:06:48.237Z,44.80
2024-03-30T21:09:18.748Z,29.40
2024-03-30T21:11:49.380Z,33.80
2024-03-30T21:14:19.982Z,30.50
2024-03-30T21:16:50.971Z,28.20
2024-03-30T21:19:21.561Z,31.80
2024-03-30T21:21:53.171Z,35.20
2024-03-30T21:24:25.571Z,27.90
2024-03-30T21:26:56.063Z,39.50
2024-03-30T21:29:26.517Z,34.90
2024-03-30T21:31:56.952Z,33.70
2024-03-30T21:34:27.476Z,40.70
2024-03-30T21:36:57.891Z,40.10
2024-03-30T21:39:28.747Z,26.00
2024-03-30T21:41:59.913Z,23.80
2024-03-30T21:44:31.221Z,50.00
2024-03-30T21:47:01.692Z,30.30
2024-03-30T21:49:32.112Z,34.60
2024-03-30T21:52:02.645Z,26.40
2024-03-30T21:54:33.909Z,25.80
2024-03-30T21:57:05.763Z,27.70
2024-03-30T21:59:36.617Z,26.90
2024-03-30T22:02:07.228Z,32.20
2024-03-30T22:04:37.706Z,33.20
2024-03-30T22:07:09.138Z,34.00
2024-03-30T22:09:39.592Z,29.00
2024-03-30T22:12:10.475Z,27.70
2024-03-30T22:14:40.890Z,30.40
2024-03-30T22:17:11.433Z,39.20
2024-03-30T22:19:41.890Z,29.80
2024-03-30T22:22:12.320Z,28.50
2024-03-30T22:24:42.784Z,32.60
2024-03-30T22:27:13.253Z,37.50
2024-03-30T22:29:43.669Z,25.70
2024-03-30T22:32:14.181Z,32.30
2024-03-30T22:34:44.680Z,39.90
2024-03-30T22:37:15.127Z,35.60
2024-03-30T22:39:49.336Z,41.20
2024-03-30T22:42:19.800Z,30.80
2024-03-30T22:44:51.703Z,31.90
2024-03-30T22:47:22.232Z,30.00
2024-03-30T22:49:52.961Z,27.70
2024-03-30T22:52:23.428Z,28.00
2024-03-30T22:54:54.139Z,32.30
2024-03-30T22:57:24.646Z,35.50
2024-03-30T22:59:55.152Z,31.00
2024-03-30T23:02:25.621Z,28.90
2024-03-30T23:04:57.813Z,32.90
2024-03-30T23:07:28.354Z,23.30
2024-03-30T23:09:58.828Z,27.10
2024-03-30T23:12:29.446Z,27.10
2024-03-30T23:14:59.974Z,24.40
2024-03-30T23:17:30.838Z,22.20
2024-03-30T23:20:01.379Z,24.70
2024-03-30T23:22:31.913Z,29.00
2024-03-30T23:25:02.418Z,26.60
2024-03-30T23:27:32.910Z,28.30
2024-03-30T23:30:03.661Z,33.80
2024-03-30T23:32:34.107Z,29.20
2024-03-30T23:35:04.664Z,33.80
2024-03-30T23:37:35.143Z,21.00
2024-03-30T23:40:06.301Z,32.70
2024-03-30T23:45:08.222Z,33.50
2024-03-30T23:47:38.727Z,27.10
2024-03-30T23:50:09.878Z,25.70
2024-03-30T23:55:10.035Z,21.70
2024-03-30T23:57:41.237Z,19.10
